Ext Monserrate, Puerto Rico
Current Conditions -  °F | °C
As of 6:55 AM on Wednesday 26 Nov 2014 (Local Time) from TJIG Reporting Station
Moderate Rain Moderate Rain  
Wind Chill: 75°   Ceiling: 2500
Heat Index: 75°   Visibility: 5mi
Dew Point: 72°   Wind: 0mph
Humidity: 89%   Direction: NA
Pressure: 30.04"   Gusts: NA
Location:  17.9903°N, 66.2815°W
Report Text: TJIG 261055Z 00000KT 5SM RA SCT015 BKN025 24/22 A3004 RMK RY09 IN USE ATIS A
Loading
Personal Weather Stations






























Interactive Weather Map New forecast layout! Learn more

10-Day Weather Forecast

Advertisements
Track Severe Weather on mobile